Terminal Aerodrome Forecast
Issued by NWS

Home | Current Version | Previous Version | Text Only | Print | Product List | Glossary On
Versions: 1 2 3 4 5 6 7 8 9 10 11 12 13 14 15 16 17 18 19 20 21 22 23 24 25 26 27 28 29 30 31 32 33 34 35 36 37 38
000
FTUS45 KGJT 301735
TAFEGE
TAF
KEGE 301735Z 3018/0118 VRB04KT P6SM VCSH SCT050 BKN070
     FM301900 25009KT P6SM VCSH SCT060 BKN090
     FM010200 08003KT P6SM FEW060 BKN090
     FM011200 VRB03KT P6SM VCSH BKN060
     FM011500 VRB03KT P6SM -SHRA SCT025 BKN045=

USA.gov is the U.S. government's official web portal to all federal, state and local government web resources and services.